createdAt,value
2018-06-11T00:05:02.688Z,19.33
2018-06-11T00:11:08.349Z,20.83
2018-06-11T00:17:14.295Z,20.10
2018-06-11T00:23:20.121Z,22.03
2018-06-11T00:29:25.727Z,21.43
2018-06-11T00:35:31.449Z,21.27
2018-06-11T00:41:37.063Z,21.20
2018-06-11T00:47:42.848Z,21.10
2018-06-11T00:53:48.551Z,22.90
2018-06-11T00:59:54.231Z,22.60
2018-06-11T01:06:00.068Z,23.10
2018-06-11T01:12:05.885Z,21.03
2018-06-11T01:18:11.525Z,21.23
2018-06-11T01:24:17.310Z,22.23
2018-06-11T01:30:23.121Z,22.97
2018-06-11T01:36:28.820Z,21.00
2018-06-11T01:42:34.485Z,21.67
2018-06-11T01:48:40.304Z,22.03
2018-06-11T01:54:45.943Z,23.30
2018-06-11T02:00:52.451Z,23.57
2018-06-11T02:06:58.349Z,21.57
2018-06-11T02:13:04.417Z,21.80
2018-06-11T02:19:10.108Z,20.60
2018-06-11T02:25:15.912Z,19.73
2018-06-11T02:31:22.231Z,20.87
2018-06-11T02:37:28.225Z,20.27
2018-06-11T02:43:33.908Z,22.07
2018-06-11T02:49:39.616Z,19.97
2018-06-11T02:55:45.368Z,20.37
2018-06-11T03:01:51.061Z,22.67
2018-06-11T03:07:57.104Z,21.37
2018-06-11T03:14:02.826Z,23.27
2018-06-11T03:20:08.557Z,22.53
2018-06-11T03:26:14.198Z,20.60
2018-06-11T03:32:20.008Z,20.40
2018-06-11T03:38:25.853Z,18.17
2018-06-11T03:44:31.457Z,19.63
2018-06-11T03:50:37.098Z,19.50
2018-06-11T03:56:42.802Z,18.57
2018-06-11T04:02:48.516Z,19.27
2018-06-11T04:08:54.212Z,20.87
2018-06-11T04:14:59.966Z,21.77
2018-06-11T04:21:05.634Z,19.83
2018-06-11T04:27:11.265Z,18.33
2018-06-11T04:33:16.921Z,19.50
2018-06-11T04:39:23.021Z,19.43
2018-06-11T04:45:28.996Z,18.90
2018-06-11T04:51:34.665Z,17.80
2018-06-11T04:57:40.303Z,18.00
2018-06-11T05:03:45.969Z,18.20
2018-06-11T05:09:51.919Z,18.30
2018-06-11T05:15:57.661Z,18.40
2018-06-11T05:22:03.329Z,16.90
2018-06-11T05:28:08.993Z,17.50
2018-06-11T05:34:14.844Z,16.60
2018-06-11T05:40:21.058Z,17.83
2018-06-11T05:46:26.646Z,17.53
2018-06-11T05:52:32.260Z,16.90
2018-06-11T05:58:37.957Z,16.57
2018-06-11T06:04:43.664Z,15.30
2018-06-11T06:10:49.376Z,15.00
2018-06-11T06:16:55.408Z,16.17
2018-06-11T06:23:01.180Z,16.30
2018-06-11T06:29:06.936Z,13.90
2018-06-11T06:35:12.687Z,14.70
2018-06-11T06:41:18.327Z,16.20
2018-06-11T06:47:24.819Z,17.13
2018-06-11T06:53:30.538Z,16.70
2018-06-11T06:59:36.228Z,15.33
2018-06-11T07:05:41.906Z,14.97
2018-06-11T07:11:47.562Z,14.20
2018-06-11T07:17:53.809Z,15.40
2018-06-11T07:23:59.465Z,15.37
2018-06-11T07:30:05.688Z,16.50
2018-06-11T07:36:11.802Z,16.23
2018-06-11T07:42:17.407Z,16.10
2018-06-11T07:48:24.060Z,16.80
2018-06-11T07:54:29.668Z,17.37
2018-06-11T08:00:35.451Z,18.80
2018-06-11T08:06:41.093Z,19.03
2018-06-11T08:12:46.750Z,18.17
2018-06-11T08:18:52.573Z,19.03
2018-06-11T08:24:58.369Z,18.20
2018-06-11T08:31:04.064Z,19.20
2018-06-11T08:37:09.786Z,15.60
2018-06-11T08:43:15.411Z,16.50
2018-06-11T08:49:21.247Z,14.03
2018-06-11T08:55:27.006Z,14.20
2018-06-11T09:01:33.088Z,13.23
2018-06-11T09:07:38.830Z,14.70
2018-06-11T09:13:44.548Z,14.00
2018-06-11T09:19:51.319Z,13.80
2018-06-11T09:25:57.252Z,12.67
2018-06-11T09:32:02.869Z,12.50
2018-06-11T09:38:08.710Z,13.80
2018-06-11T09:44:14.438Z,13.40
2018-06-11T09:50:20.109Z,12.93
2018-06-11T09:56:25.932Z,13.10
2018-06-11T10:02:31.609Z,13.10
2018-06-11T10:08:37.295Z,12.17
2018-06-11T10:14:43.040Z,12.40
2018-06-11T10:20:49.454Z,12.27
2018-06-11T10:26:55.420Z,14.00
2018-06-11T10:33:01.043Z,13.40
2018-06-11T10:39:09.475Z,12.00
2018-06-11T10:45:15.251Z,11.93
2018-06-11T10:51:21.024Z,11.53
2018-06-11T10:57:26.979Z,11.70
2018-06-11T11:03:32.678Z,11.23
2018-06-11T11:09:38.344Z,10.07
2018-06-11T11:15:44.084Z,9.33
2018-06-11T11:21:49.762Z,9.60
2018-06-11T11:27:55.524Z,8.60
2018-06-11T11:34:01.110Z,8.70
2018-06-11T11:40:06.941Z,8.80
2018-06-11T11:46:12.624Z,9.97
2018-06-11T11:52:18.553Z,9.10
2018-06-11T11:58:24.709Z,9.50
2018-06-11T12:04:30.384Z,10.90
2018-06-11T12:10:36.165Z,8.70
2018-06-11T12:16:41.820Z,10.03
2018-06-11T12:22:47.875Z,9.60
2018-06-11T12:28:53.688Z,8.70
2018-06-11T12:34:59.385Z,7.50
2018-06-11T12:41:05.019Z,6.93
2018-06-11T12:47:10.641Z,6.43
2018-06-11T12:53:16.335Z,6.57
2018-06-11T12:59:22.125Z,6.80
2018-06-11T13:05:28.124Z,6.47
2018-06-11T13:11:33.839Z,6.73
2018-06-11T13:17:39.466Z,6.23
2018-06-11T13:23:45.099Z,7.23
2018-06-11T13:29:51.318Z,6.97
2018-06-11T13:35:57.072Z,6.03
2018-06-11T13:42:02.696Z,6.07
2018-06-11T13:48:08.380Z,5.40
2018-06-11T13:54:14.172Z,4.63
2018-06-11T14:00:21.006Z,4.70
2018-06-11T14:06:26.877Z,4.27
2018-06-11T14:12:32.538Z,4.23
2018-06-11T14:18:38.234Z,4.00
2018-06-11T14:24:44.323Z,4.43
2018-06-11T14:30:50.174Z,3.40
2018-06-11T14:36:56.074Z,4.00
2018-06-11T14:43:01.879Z,4.20
2018-06-11T14:49:07.608Z,3.80
2018-06-11T14:55:13.396Z,4.33
2018-06-11T15:01:19.262Z,4.40
2018-06-11T15:07:24.951Z,4.20
2018-06-11T15:13:30.605Z,4.93
2018-06-11T15:19:36.286Z,4.20
2018-06-11T15:25:42.342Z,4.20
2018-06-11T15:31:47.963Z,4.67
2018-06-11T15:38:24.399Z,4.87
2018-06-11T15:44:30.307Z,4.13
2018-06-11T15:50:35.921Z,4.10
2018-06-11T15:56:41.604Z,7.67
2018-06-11T16:02:47.334Z,4.80
2018-06-11T16:08:53.031Z,5.40
2018-06-11T16:14:58.799Z,5.27
2018-06-11T16:21:04.441Z,4.83
2018-06-11T16:27:10.125Z,4.97
2018-06-11T16:33:15.779Z,6.20
2018-06-11T16:39:21.551Z,5.27
2018-06-11T16:45:27.236Z,4.73
2018-06-11T16:51:32.970Z,4.97
2018-06-11T16:57:38.641Z,4.83
2018-06-11T17:03:44.248Z,4.90
2018-06-11T17:09:50.067Z,4.93
2018-06-11T17:15:55.805Z,5.20
2018-06-11T17:22:01.472Z,5.43
2018-06-11T17:28:07.333Z,5.33
2018-06-11T17:34:12.984Z,4.23
2018-06-11T17:40:18.684Z,4.60
2018-06-11T17:46:24.575Z,5.70
2018-06-11T17:52:30.433Z,4.60
2018-06-11T17:58:36.147Z,5.60
2018-06-11T18:04:41.825Z,5.00
2018-06-11T18:10:47.365Z,5.00
2018-06-11T18:16:53.700Z,5.57
2018-06-11T18:22:59.352Z,4.80
2018-06-11T18:29:05.275Z,5.07
2018-06-11T18:35:10.936Z,5.77
2018-06-11T18:41:16.553Z,5.10
2018-06-11T18:47:22.872Z,5.47
2018-06-11T18:53:28.514Z,4.70
2018-06-11T18:59:34.212Z,5.10
2018-06-11T19:05:39.959Z,4.57
2018-06-11T19:11:45.722Z,5.07
2018-06-11T19:17:51.678Z,4.93
2018-06-11T19:23:57.453Z,4.57
2018-06-11T19:30:03.168Z,4.57
2018-06-11T19:36:08.813Z,5.43
2018-06-11T19:42:14.570Z,5.30
2018-06-11T19:48:20.177Z,5.40
2018-06-11T19:54:25.908Z,5.50
2018-06-11T20:00:31.566Z,5.90
2018-06-11T20:06:37.297Z,6.33
2018-06-11T20:12:43.010Z,5.03
2018-06-11T20:18:48.696Z,5.80
2018-06-11T20:24:54.468Z,5.63
2018-06-11T20:31:00.660Z,5.47
2018-06-11T20:37:06.337Z,5.57
2018-06-11T20:43:12.024Z,6.27
2018-06-11T20:49:17.676Z,5.37
2018-06-11T20:55:23.556Z,6.23
2018-06-11T21:01:29.272Z,6.40
2018-06-11T21:07:34.950Z,5.10
2018-06-11T21:13:40.700Z,5.77
2018-06-11T21:19:46.315Z,6.20
2018-06-11T21:25:52.650Z,5.60
2018-06-11T21:31:58.421Z,4.57
2018-06-11T21:38:04.420Z,4.60
2018-06-11T21:44:10.127Z,4.17
2018-06-11T21:50:15.796Z,4.17
2018-06-11T21:56:21.908Z,3.57
2018-06-11T22:02:27.663Z,4.23
2018-06-11T22:08:33.307Z,4.60
2018-06-11T22:14:39.055Z,4.33
2018-06-11T22:20:44.724Z,4.20
2018-06-11T22:26:50.679Z,4.70
2018-06-11T22:32:56.385Z,5.07
2018-06-11T22:39:02.171Z,4.83
2018-06-11T22:45:08.044Z,4.23
2018-06-11T22:51:13.664Z,5.40
2018-06-11T22:57:19.760Z,4.87
2018-06-11T23:03:25.329Z,5.00
2018-06-11T23:09:30.881Z,5.47
2018-06-11T23:15:36.628Z,5.00
2018-06-11T23:21:42.286Z,5.50
2018-06-11T23:27:47.885Z,4.70
2018-06-11T23:33:54.476Z,4.90
2018-06-11T23:40:00.227Z,4.90
2018-06-11T23:52:50.744Z,4.93
2018-06-11T23:58:57.388Z,5.70
